createdAt,value
2022-08-09T00:02:06.746Z,65.67
2022-08-09T00:06:18.144Z,65.60
2022-08-09T00:08:39.059Z,65.59
2022-08-09T00:11:58.690Z,65.63
2022-08-09T00:15:14.740Z,65.66
2022-08-09T00:18:21.110Z,65.63
2022-08-09T00:21:28.052Z,65.46
2022-08-09T00:24:35.015Z,65.29
2022-08-09T00:27:44.176Z,65.14
2022-08-09T00:30:56.767Z,65.18
2022-08-09T00:34:03.085Z,65.01
2022-08-09T00:37:09.010Z,65.01
2022-08-09T00:40:17.393Z,64.88
2022-08-09T00:44:10.467Z,65.02
2022-08-09T00:46:56.882Z,64.81
2022-08-09T00:50:14.647Z,64.88
2022-08-09T00:53:24.006Z,65.22
2022-08-09T00:56:30.953Z,65.31
2022-08-09T00:59:41.102Z,65.39
2022-08-09T01:02:51.181Z,65.39
2022-08-09T01:06:17.576Z,65.87
2022-08-09T01:09:36.978Z,66.20
2022-08-09T01:12:52.922Z,66.32
2022-08-09T01:16:00.842Z,65.92
2022-08-09T01:19:42.701Z,65.82
2022-08-09T01:23:04.770Z,65.22
2022-08-09T01:26:55.959Z,64.75
2022-08-09T01:30:05.582Z,64.55
2022-08-09T01:33:15.823Z,64.36
2022-08-09T01:36:27.314Z,64.18
2022-08-09T01:39:36.722Z,64.32
2022-08-09T01:42:43.747Z,64.53
2022-08-09T01:45:51.429Z,64.33
2022-08-09T01:49:10.392Z,64.43
2022-08-09T01:52:21.088Z,64.43
2022-08-09T01:55:31.257Z,64.69
2022-08-09T01:58:40.226Z,65.19
2022-08-09T02:01:59.382Z,65.41
2022-08-09T02:05:15.309Z,65.17
2022-08-09T02:08:39.588Z,65.11
2022-08-09T02:11:50.191Z,64.91
2022-08-09T02:14:57.958Z,64.53
2022-08-09T02:18:10.521Z,64.64
2022-08-09T02:21:22.133Z,64.59
2022-08-09T02:24:35.602Z,65.15
2022-08-09T02:28:00.199Z,64.88
2022-08-09T02:31:12.575Z,64.79
2022-08-09T02:34:25.888Z,64.62
2022-08-09T02:37:51.279Z,64.56
2022-08-09T02:41:03.409Z,64.41
2022-08-09T02:44:25.562Z,64.52
2022-08-09T02:47:57.362Z,64.76
2022-08-09T02:51:05.638Z,64.84
2022-08-09T02:54:15.030Z,65.16
2022-08-09T02:57:23.963Z,64.93
2022-08-09T03:00:32.372Z,64.86
2022-08-09T03:04:17.475Z,64.61
2022-08-09T03:07:14.032Z,65.09
2022-08-09T03:10:22.053Z,65.16
2022-08-09T03:13:43.984Z,65.12
2022-08-09T03:16:58.248Z,65.05
2022-08-09T03:20:11.601Z,64.65
2022-08-09T03:23:24.688Z,65.38
2022-08-09T03:26:32.448Z,65.37
2022-08-09T03:29:57.373Z,65.65
2022-08-09T03:33:17.877Z,65.72
2022-08-09T03:36:27.352Z,65.80
2022-08-09T03:39:37.808Z,66.03
2022-08-09T03:42:44.599Z,66.40
2022-08-09T03:46:05.019Z,66.49
2022-08-09T03:49:19.224Z,66.55
2022-08-09T03:52:31.093Z,66.41
2022-08-09T03:55:40.828Z,66.46
2022-08-09T03:58:50.136Z,66.46
2022-08-09T04:01:59.139Z,66.59
2022-08-09T04:05:26.559Z,66.73
2022-08-09T04:08:33.160Z,66.86
2022-08-09T04:12:08.704Z,66.92
2022-08-09T04:15:42.552Z,66.96
2022-08-09T04:18:45.866Z,66.85
2022-08-09T04:21:52.550Z,66.83
2022-08-09T04:24:59.010Z,67.11
2022-08-09T04:28:05.482Z,67.00
2022-08-09T04:31:13.015Z,66.67
2022-08-09T04:34:30.593Z,66.90
2022-08-09T04:37:46.055Z,67.57
2022-08-09T04:40:56.368Z,69.02
2022-08-09T04:44:05.680Z,68.63
2022-08-09T04:47:12.477Z,67.86
2022-08-09T04:50:20.169Z,67.51
2022-08-09T04:53:26.362Z,66.61
2022-08-09T04:56:32.486Z,65.96
2022-08-09T04:59:40.923Z,65.64
2022-08-09T05:02:52.477Z,65.53
2022-08-09T05:06:06.526Z,65.10
2022-08-09T05:09:13.427Z,64.71
2022-08-09T05:12:22.626Z,64.15
2022-08-09T05:15:38.765Z,63.60
2022-08-09T05:18:57.344Z,62.62
2022-08-09T05:22:05.784Z,61.63
2022-08-09T05:25:32.709Z,60.93
2022-08-09T05:28:38.846Z,60.83
2022-08-09T05:31:46.587Z,60.65
2022-08-09T05:34:55.524Z,60.58
2022-08-09T05:38:02.003Z,60.04
2022-08-09T05:41:12.803Z,60.59
2022-08-09T05:44:22.075Z,60.00
2022-08-09T05:47:35.186Z,60.24
2022-08-09T05:51:12.098Z,60.21
2022-08-09T05:54:18.074Z,57.64
2022-08-09T05:57:25.012Z,57.66
2022-08-09T06:00:50.682Z,58.20
2022-08-09T06:03:58.926Z,58.98
2022-08-09T06:07:05.770Z,60.88
2022-08-09T06:10:18.114Z,60.43
2022-08-09T06:13:28.396Z,59.85
2022-08-09T06:16:40.435Z,58.05
2022-08-09T06:19:47.523Z,57.62
2022-08-09T06:22:55.543Z,60.08
2022-08-09T06:26:02.223Z,61.78
2022-08-09T06:29:09.489Z,61.73
2022-08-09T06:32:59.429Z,60.65
2022-08-09T06:35:56.902Z,59.60
2022-08-09T06:39:09.290Z,57.32
2022-08-09T06:42:19.847Z,57.66
2022-08-09T06:46:04.720Z,58.69
2022-08-09T07:02:13.408Z,62.41
2022-08-09T07:05:22.373Z,61.81
2022-08-09T07:08:27.865Z,61.53
2022-08-09T07:11:51.971Z,60.45
2022-08-09T07:14:59.099Z,58.80
2022-08-09T07:18:22.943Z,58.07
2022-08-09T07:21:30.975Z,58.47
2022-08-09T07:24:40.766Z,60.15
2022-08-09T07:27:55.470Z,60.73
2022-08-09T07:31:01.503Z,60.93
2022-08-09T07:34:08.302Z,60.72
2022-08-09T07:37:25.769Z,60.19
2022-08-09T07:40:54.179Z,59.88
2022-08-09T07:43:56.752Z,59.92
2022-08-09T07:47:02.178Z,59.25
2022-08-09T07:50:09.268Z,59.68
2022-08-09T07:53:15.065Z,59.33
2022-08-09T07:56:48.946Z,59.11
2022-08-09T08:00:02.727Z,59.03
2022-08-09T08:03:09.819Z,59.44
2022-08-09T08:06:21.175Z,59.96
2022-08-09T08:09:35.249Z,59.74
2022-08-09T08:12:50.003Z,58.80
2022-08-09T08:15:55.519Z,58.60
2022-08-09T08:19:04.824Z,60.06
2022-08-09T08:22:10.329Z,61.42
2022-08-09T08:25:15.965Z,59.50
2022-08-09T08:28:32.001Z,60.05
2022-08-09T08:31:56.464Z,61.42
2022-08-09T08:35:02.818Z,60.29
2022-08-09T08:38:11.592Z,59.79
2022-08-09T08:41:17.460Z,61.06
2022-08-09T08:44:28.766Z,61.12
2022-08-09T08:47:38.551Z,59.18
2022-08-09T08:50:51.956Z,58.85
2022-08-09T08:54:03.881Z,59.35
2022-08-09T08:57:12.016Z,59.46
2022-08-09T09:00:27.361Z,58.23
2022-08-09T09:03:37.910Z,59.05
2022-08-09T09:06:46.344Z,58.27
2022-08-09T09:10:01.919Z,56.90
2022-08-09T09:13:11.584Z,56.52
2022-08-09T09:16:30.369Z,57.63
2022-08-09T09:19:41.131Z,56.43
2022-08-09T09:23:01.470Z,56.30
2022-08-09T09:26:12.242Z,54.88
2022-08-09T09:29:40.966Z,54.32
2022-08-09T09:33:15.863Z,54.73
2022-08-09T09:36:23.072Z,54.98
2022-08-09T09:39:55.342Z,53.91
2022-08-09T09:42:59.266Z,54.52
2022-08-09T09:50:13.313Z,54.02
2022-08-09T09:52:58.505Z,54.82
2022-08-09T09:56:05.791Z,54.22
2022-08-09T09:59:13.058Z,54.04
2022-08-09T10:02:23.301Z,53.70
2022-08-09T10:06:03.598Z,53.12
2022-08-09T10:09:21.897Z,53.13
2022-08-09T10:12:31.641Z,51.97
2022-08-09T10:16:08.952Z,52.56
2022-08-09T10:19:15.728Z,52.38
2022-08-09T10:22:33.080Z,51.25
2022-08-09T10:26:06.219Z,50.52
2022-08-09T10:29:22.705Z,50.19
2022-08-09T10:32:42.532Z,50.05
2022-08-09T10:35:49.589Z,49.38
2022-08-09T10:38:59.791Z,48.67
2022-08-09T10:42:06.609Z,48.07
2022-08-09T10:45:16.504Z,47.88
2022-08-09T10:48:30.045Z,47.90
2022-08-09T10:51:56.324Z,48.86
2022-08-09T10:55:22.787Z,49.01
2022-08-09T11:15:50.919Z,47.87
2022-08-09T11:19:01.498Z,48.69
2022-08-09T11:22:18.837Z,47.66
2022-08-09T11:25:54.738Z,48.67
2022-08-09T11:29:01.139Z,48.77
2022-08-09T11:32:08.282Z,48.73
2022-08-09T11:35:18.873Z,47.55
2022-08-09T11:38:35.063Z,46.45
2022-08-09T11:41:48.781Z,46.69
2022-08-09T11:44:57.287Z,46.18
2022-08-09T11:48:26.154Z,46.49
2022-08-09T11:52:59.188Z,45.07
2022-08-09T11:55:53.660Z,45.59
2022-08-09T11:59:05.642Z,44.73
2022-08-09T12:02:16.904Z,44.46
2022-08-09T12:05:34.468Z,45.12
2022-08-09T12:08:51.018Z,44.28
2022-08-09T12:12:04.091Z,43.20
2022-08-09T12:15:50.323Z,43.37
2022-08-09T12:18:53.809Z,44.18
2022-08-09T12:22:03.206Z,43.38
2022-08-09T12:25:17.118Z,41.13
2022-08-09T12:29:12.311Z,42.75
2022-08-09T12:32:03.391Z,43.61
2022-08-09T12:35:13.446Z,43.53
2022-08-09T12:38:38.133Z,44.41
2022-08-09T12:41:44.861Z,45.08
2022-08-09T12:44:52.342Z,45.45
2022-08-09T12:48:01.071Z,45.86
2022-08-09T12:51:10.719Z,45.22
2022-08-09T12:54:17.960Z,45.77
2022-08-09T12:57:41.802Z,46.62
2022-08-09T13:00:48.723Z,46.72
2022-08-09T13:04:03.364Z,46.00
2022-08-09T13:07:19.899Z,45.97
2022-08-09T13:10:44.534Z,45.62
2022-08-09T13:14:42.348Z,46.15
2022-08-09T13:17:58.682Z,46.73
2022-08-09T13:22:33.434Z,47.13
2022-08-09T13:24:53.329Z,47.04
2022-08-09T13:28:03.158Z,47.48
2022-08-09T13:32:16.568Z,47.14
2022-08-09T13:34:42.294Z,46.71
2022-08-09T13:37:51.367Z,46.90
2022-08-09T13:41:46.954Z,47.05
2022-08-09T13:44:29.219Z,47.28
2022-08-09T13:47:49.564Z,46.21
2022-08-09T13:50:58.920Z,44.10
2022-08-09T13:54:05.218Z,45.42
2022-08-09T13:57:14.490Z,46.30
2022-08-09T14:00:44.822Z,46.91
2022-08-09T14:04:02.792Z,46.03
2022-08-09T14:07:11.500Z,43.58
2022-08-09T14:10:37.748Z,43.50
2022-08-09T14:14:24.822Z,44.17
2022-08-09T14:17:12.156Z,43.05
2022-08-09T14:20:18.905Z,43.91
2022-08-09T14:23:53.748Z,43.78
2022-08-09T14:26:53.517Z,43.61
2022-08-09T14:30:34.503Z,44.55
2022-08-09T14:33:26.338Z,44.90
2022-08-09T14:36:35.320Z,43.82
2022-08-09T14:39:48.558Z,43.31
2022-08-09T14:42:55.020Z,44.13
2022-08-09T14:46:54.552Z,44.70
2022-08-09T14:49:34.673Z,44.81
2022-08-09T14:52:55.421Z,45.16
2022-08-09T14:56:01.553Z,45.48
2022-08-09T14:59:09.039Z,45.93
2022-08-09T15:02:20.700Z,46.02
2022-08-09T15:05:27.274Z,45.94
2022-08-09T15:08:35.742Z,46.66
2022-08-09T15:11:48.657Z,46.92
2022-08-09T15:14:56.035Z,47.24
2022-08-09T15:18:02.276Z,47.98
2022-08-09T15:22:01.454Z,48.71
2022-08-09T15:24:35.023Z,48.62
2022-08-09T15:27:47.998Z,48.98
2022-08-09T15:31:08.644Z,49.13
2022-08-09T15:34:33.408Z,48.99
2022-08-09T15:37:57.133Z,48.82
2022-08-09T15:41:09.777Z,49.06
2022-08-09T15:44:16.190Z,49.48
2022-08-09T15:47:31.888Z,49.76
2022-08-09T15:50:52.428Z,49.76
2022-08-09T15:54:05.973Z,49.79
2022-08-09T15:57:14.152Z,48.86
2022-08-09T16:00:26.793Z,48.66
2022-08-09T16:03:37.951Z,49.20
2022-08-09T16:06:50.631Z,50.11
2022-08-09T16:10:03.976Z,51.09
2022-08-09T16:13:21.067Z,51.89
2022-08-09T16:16:41.758Z,52.20
2022-08-09T16:20:04.829Z,51.73
2022-08-09T16:23:15.145Z,52.89
2022-08-09T16:26:33.552Z,52.34
2022-08-09T16:29:50.540Z,51.68
2022-08-09T16:33:16.122Z,53.56
2022-08-09T16:36:22.634Z,52.78
2022-08-09T16:39:31.747Z,51.79
2022-08-09T16:42:54.551Z,51.29
2022-08-09T16:46:01.895Z,52.06
2022-08-09T16:49:17.731Z,53.10
2022-08-09T16:52:35.835Z,52.37
2022-08-09T16:56:01.407Z,51.54
2022-08-09T16:59:10.607Z,50.95
2022-08-09T17:02:17.791Z,50.50
2022-08-09T17:06:06.974Z,50.40
2022-08-09T17:08:58.926Z,49.98
2022-08-09T17:12:11.666Z,49.70
2022-08-09T17:15:31.082Z,49.81
2022-08-09T17:18:45.362Z,50.41
2022-08-09T17:21:54.448Z,50.15
2022-08-09T17:25:03.754Z,50.79
2022-08-09T17:28:10.983Z,50.90
2022-08-09T17:31:20.047Z,50.70
2022-08-09T17:35:00.827Z,50.70
2022-08-09T17:38:12.992Z,51.66
2022-08-09T17:41:21.485Z,52.08
2022-08-09T17:44:47.946Z,51.82
2022-08-09T17:48:02.696Z,52.35
2022-08-09T17:51:18.041Z,52.40
2022-08-09T17:54:29.592Z,52.34
2022-08-09T17:58:03.730Z,53.31
2022-08-09T18:01:02.252Z,54.70
2022-08-09T18:04:08.618Z,54.99
2022-08-09T18:07:22.979Z,56.21
2022-08-09T18:10:31.134Z,55.68
2022-08-09T18:13:56.514Z,57.10
2022-08-09T18:17:04.958Z,57.41
2022-08-09T18:20:54.060Z,57.70
2022-08-09T18:24:09.674Z,58.27
2022-08-09T18:27:06.849Z,58.92
2022-08-09T18:30:41.576Z,59.67
2022-08-09T18:33:44.278Z,60.08
2022-08-09T18:36:59.670Z,60.45
2022-08-09T18:40:07.218Z,60.80
2022-08-09T18:43:13.811Z,60.74
2022-08-09T18:46:46.759Z,61.14
2022-08-09T18:49:48.601Z,61.84
2022-08-09T18:53:00.767Z,62.13
2022-08-09T18:56:10.229Z,63.40
2022-08-09T18:59:16.614Z,64.23
2022-08-09T19:02:31.802Z,63.05
2022-08-09T19:06:02.270Z,61.05
2022-08-09T19:09:07.860Z,60.37
2022-08-09T19:12:21.832Z,60.94
2022-08-09T19:15:28.703Z,61.52
2022-08-09T19:18:38.690Z,61.68
2022-08-09T19:22:04.913Z,61.90
2022-08-09T19:25:41.754Z,63.84
2022-08-09T19:28:42.684Z,64.44
2022-08-09T19:31:59.863Z,63.40
2022-08-09T19:35:07.435Z,62.57
2022-08-09T19:38:13.658Z,61.89
2022-08-09T19:41:33.391Z,60.64
2022-08-09T19:44:42.142Z,60.62
2022-08-09T19:47:48.279Z,61.54
2022-08-09T19:50:54.544Z,63.43
2022-08-09T19:54:01.242Z,63.65
2022-08-09T19:57:08.513Z,62.97
2022-08-09T20:00:18.015Z,62.47
2022-08-09T20:04:26.567Z,61.76
2022-08-09T20:06:50.279Z,60.16
2022-08-09T20:09:56.434Z,60.32
2022-08-09T20:13:03.094Z,61.09
2022-08-09T20:16:34.006Z,61.82
2022-08-09T20:19:47.596Z,63.82
2022-08-09T20:22:56.329Z,63.81
2022-08-09T20:26:03.080Z,62.80
2022-08-09T20:29:19.054Z,62.32
2022-08-09T20:32:30.750Z,61.98
2022-08-09T20:35:40.200Z,61.68
2022-08-09T20:39:28.695Z,61.37
2022-08-09T20:42:17.820Z,61.07
2022-08-09T20:45:59.836Z,60.07
2022-08-09T20:48:51.615Z,60.44
2022-08-09T20:51:57.821Z,61.30
2022-08-09T20:55:09.075Z,63.36
2022-08-09T20:58:20.211Z,63.90
2022-08-09T21:01:34.274Z,63.26
2022-08-09T21:05:56.670Z,62.62
2022-08-09T21:08:20.287Z,62.03
2022-08-09T21:14:57.412Z,61.62
2022-08-09T21:18:22.453Z,61.71
2022-08-09T21:21:46.365Z,61.22
2022-08-09T21:25:13.622Z,61.07
2022-08-09T21:28:20.758Z,60.64
2022-08-09T21:31:49.364Z,59.91
2022-08-09T21:34:56.363Z,60.21
2022-08-09T21:38:03.026Z,61.24
2022-08-09T21:41:09.219Z,63.26
2022-08-09T21:44:33.307Z,64.31
2022-08-09T21:47:42.463Z,63.42
2022-08-09T21:50:51.330Z,62.78
2022-08-09T21:53:58.135Z,62.67
2022-08-09T21:57:05.833Z,62.70
2022-08-09T22:00:15.703Z,62.30
2022-08-09T22:03:25.489Z,62.45
2022-08-09T22:06:32.359Z,62.74
2022-08-09T22:09:38.531Z,62.85
2022-08-09T22:12:50.334Z,62.63
2022-08-09T22:15:56.406Z,62.23
2022-08-09T22:19:01.040Z,61.98
2022-08-09T22:22:07.485Z,62.19
2022-08-09T22:26:08.247Z,61.84
2022-08-09T22:28:47.364Z,61.98
2022-08-09T22:32:00.507Z,61.90
2022-08-09T22:36:02.260Z,61.73
2022-08-09T22:38:33.964Z,61.51
2022-08-09T22:41:43.702Z,61.20
2022-08-09T22:48:05.088Z,61.11
2022-08-09T22:48:35.919Z,61.13
2022-08-09T22:51:43.510Z,61.20
2022-08-09T22:54:56.249Z,61.65
2022-08-09T22:58:02.361Z,61.61
2022-08-09T23:01:11.591Z,61.44
2022-08-09T23:04:19.306Z,61.28
2022-08-09T23:08:27.353Z,61.11
2022-08-09T23:11:11.154Z,61.49
2022-08-09T23:14:17.735Z,61.37
2022-08-09T23:17:43.528Z,61.74
2022-08-09T23:20:48.055Z,61.68
2022-08-09T23:24:05.276Z,61.66
2022-08-09T23:27:13.283Z,61.31
2022-08-09T23:30:20.068Z,61.12
2022-08-09T23:33:26.629Z,61.20
2022-08-09T23:36:32.816Z,61.01
2022-08-09T23:39:39.064Z,61.05
2022-08-09T23:42:45.214Z,60.98
2022-08-09T23:45:49.612Z,61.17
2022-08-09T23:48:55.825Z,61.31
2022-08-09T23:52:01.945Z,61.33
2022-08-09T23:55:06.689Z,61.65
2022-08-09T23:58:26.102Z,61.97
